Time;durP1;ratioP1;P1;durP2;ratioP2;P2;SDS_P1;SDS_P2;PMS_P1;PMS_P2;Temp;Humidity;BMP_temperature;BMP_pressure;BME280_temperature;BME280_humidity;BME280_pressure;Samples;Min_cycle;Max_cycle;Signal;HPM_P1;HPM_P2
2022/05/05 00:02:15;;;;;;;8.52;7.82;;;15.60;99.90;;;;;;5090243;28;20210;-71
2022/05/05 00:04:43;;;;;;;9.10;8.20;;;15.60;99.90;;;;;;5090563;28;20222;-71
2022/05/05 00:07:11;;;;;;;9.52;8.45;;;15.60;99.90;;;;;;5090735;28;20230;-71
2022/05/05 00:09:38;;;;;;;9.30;8.45;;;15.50;99.90;;;;;;5090490;28;20281;-70
2022/05/05 00:14:55;;;;;;;9.23;8.43;;;15.40;99.90;;;;;;5090681;28;20276;-69
2022/05/05 00:17:23;;;;;;;9.25;8.45;;;15.40;99.90;;;;;;5090624;28;20306;-70
2022/05/05 00:19:51;;;;;;;9.48;8.77;;;15.40;99.90;;;;;;5089943;28;20244;-71
2022/05/05 00:22:20;;;;;;;9.70;8.80;;;15.40;99.90;;;;;;5089724;28;20210;-71
2022/05/05 00:24:48;;;;;;;8.52;7.90;;;15.30;99.90;;;;;;5090752;28;20598;-71
2022/05/05 00:27:16;;;;;;;9.43;8.68;;;15.30;99.90;;;;;;5090246;28;20312;-72
2022/05/05 00:29:43;;;;;;;9.48;8.77;;;15.30;99.90;;;;;;5090247;28;20281;-71
2022/05/05 00:32:13;;;;;;;10.00;9.20;;;15.20;99.90;;;;;;5089970;28;20236;-70
2022/05/05 00:34:40;;;;;;;11.50;9.43;;;15.10;99.90;;;;;;5091621;28;20249;-71
2022/05/05 00:37:08;;;;;;;9.57;8.80;;;15.30;99.90;;;;;;5094238;28;20246;-72
2022/05/05 00:39:36;;;;;;;9.38;8.57;;;15.10;99.90;;;;;;5094213;28;20941;-71
2022/05/05 00:42:11;;;;;;;10.20;9.15;;;15.10;99.90;;;;;;5093903;28;20225;-70
2022/05/05 00:44:39;;;;;;;8.40;7.70;;;15.00;99.90;;;;;;5094289;28;20247;-72
2022/05/05 00:47:07;;;;;;;10.30;8.60;;;15.00;99.90;;;;;;5093810;28;20287;-71
2022/05/05 00:49:36;;;;;;;8.73;8.02;;;15.00;99.90;;;;;;5093346;28;20232;-72
2022/05/05 00:52:05;;;;;;;9.75;8.95;;;15.10;99.90;;;;;;5086900;28;20716;-71
2022/05/05 00:54:33;;;;;;;9.93;8.90;;;15.10;99.90;;;;;;5087509;28;20242;-70
2022/05/05 00:57:01;;;;;;;10.05;9.18;;;15.00;99.90;;;;;;5087426;28;20738;-71
2022/05/05 00:59:29;;;;;;;10.98;9.95;;;14.90;99.90;;;;;;5087464;28;20207;-72
2022/05/05 01:01:57;;;;;;;9.13;8.32;;;14.80;99.90;;;;;;5087243;28;20198;-71
2022/05/05 01:04:25;;;;;;;11.48;10.48;;;14.70;99.90;;;;;;5092050;28;20946;-71
2022/05/05 01:06:54;;;;;;;9.60;8.70;;;14.50;99.90;;;;;;5087231;28;20258;-72
2022/05/05 01:09:22;;;;;;;11.70;10.55;;;14.40;99.90;;;;;;5087300;28;20281;-71
2022/05/05 01:11:50;;;;;;;10.02;9.13;;;14.40;99.90;;;;;;5093637;28;20237;-71
2022/05/05 01:14:18;;;;;;;10.13;9.13;;;14.50;99.90;;;;;;5093049;28;20704;-72
2022/05/05 01:16:46;;;;;;;11.32;10.48;;;14.50;99.90;;;;;;5093455;28;20262;-72
2022/05/05 01:19:14;;;;;;;11.32;10.10;;;14.30;99.90;;;;;;5093099;28;20198;-71
2022/05/05 01:21:51;;;;;;;10.40;9.40;;;14.30;99.90;;;;;;5090551;28;20238;-71
2022/05/05 01:28:10;;;;;;;10.13;9.18;;;14.30;99.90;;;;;;5092897;28;20259;-71
2022/05/05 01:29:54;;;;;;;10.15;9.13;;;14.20;99.90;;;;;;5093241;28;20273;-71
2022/05/05 01:32:22;;;;;;;9.80;8.85;;;14.20;99.90;;;;;;5086363;28;20715;-72
2022/05/05 01:34:50;;;;;;;14.68;10.55;;;14.10;99.90;;;;;;5086808;28;20215;-71
2022/05/05 01:37:19;;;;;;;11.02;8.75;;;14.10;99.90;;;;;;5092987;28;20234;-71
2022/05/05 01:39:48;;;;;;;10.15;9.25;;;14.10;99.90;;;;;;5092508;28;20321;-70
2022/05/05 01:42:16;;;;;;;9.65;8.75;;;14.10;99.90;;;;;;5092310;28;20691;-70
2022/05/05 01:44:43;;;;;;;9.43;7.80;;;14.10;99.90;;;;;;5093131;28;20230;-70
2022/05/05 01:47:11;;;;;;;10.02;8.82;;;14.10;99.90;;;;;;5092902;28;20605;-71
2022/05/05 01:49:39;;;;;;;9.75;8.98;;;14.00;99.90;;;;;;5092380;28;20233;-70
2022/05/05 01:52:09;;;;;;;10.20;9.02;;;14.00;99.90;;;;;;5092141;28;20195;-70
2022/05/05 01:54:38;;;;;;;10.00;8.07;;;14.10;99.90;;;;;;5092478;28;20234;-71
2022/05/05 01:57:07;;;;;;;10.13;7.60;;;14.20;99.90;;;;;;5092738;28;20242;-70
2022/05/05 01:59:35;;;;;;;9.70;8.70;;;14.30;99.90;;;;;;5092688;28;20245;-71
2022/05/05 02:02:04;;;;;;;10.60;8.75;;;14.30;99.90;;;;;;5091979;28;20285;-70
2022/05/05 02:04:33;;;;;;;10.10;9.10;;;14.30;99.90;;;;;;5092511;28;20302;-72
2022/05/05 02:07:01;;;;;;;10.18;8.30;;;14.30;99.90;;;;;;5092544;28;20317;-71
2022/05/05 02:09:29;;;;;;;10.23;9.10;;;14.40;99.90;;;;;;5092341;28;20294;-73
2022/05/05 02:11:58;;;;;;;11.05;8.48;;;14.50;99.90;;;;;;5092031;28;20240;-70
2022/05/05 02:14:26;;;;;;;10.10;8.77;;;14.40;99.90;;;;;;5092578;28;20203;-70
2022/05/05 02:16:54;;;;;;;10.18;8.75;;;14.40;99.90;;;;;;5092466;28;20253;-72
2022/05/05 02:19:22;;;;;;;9.68;8.65;;;14.50;99.90;;;;;;5091729;28;20244;-72
2022/05/05 02:21:50;;;;;;;9.10;8.25;;;14.50;99.90;;;;;;5092299;28;20293;-72
2022/05/05 02:24:18;;;;;;;9.57;8.65;;;14.60;99.90;;;;;;5091705;28;20225;-73
2022/05/05 02:26:45;;;;;;;13.25;8.90;;;14.60;99.90;;;;;;5083397;28;20233;-72
2022/05/05 02:29:15;;;;;;;9.55;8.60;;;14.50;99.90;;;;;;5009555;28;20206;-72
2022/05/05 02:31:42;;;;;;;8.50;7.68;;;14.50;99.90;;;;;;5009144;28;20210;-71
2022/05/05 02:34:10;;;;;;;7.78;7.03;;;14.40;99.90;;;;;;5008647;28;20209;-71
2022/05/05 02:39:24;;;;;;;8.57;6.88;;;14.30;99.90;;;;;;5009188;28;20233;-71
2022/05/05 02:41:52;;;;;;;7.90;7.20;;;14.10;99.90;;;;;;5009017;28;20254;-71
2022/05/05 02:44:21;;;;;;;8.18;7.38;;;14.10;99.90;;;;;;5009489;28;20236;-71
2022/05/05 02:46:49;;;;;;;9.55;7.15;;;14.10;99.90;;;;;;5009257;28;20251;-71
2022/05/05 02:49:17;;;;;;;8.88;7.63;;;14.10;99.90;;;;;;5008725;28;20689;-72
2022/05/05 02:51:48;;;;;;;7.78;7.22;;;14.10;99.90;;;;;;5008894;28;20210;-71
2022/05/05 02:57:01;;;;;;;7.75;7.05;;;14.10;99.90;;;;;;5008235;28;20316;-72
2022/05/05 02:59:30;;;;;;;9.07;7.32;;;14.20;99.90;;;;;;5008778;28;20205;-71
2022/05/05 03:01:59;;;;;;;8.63;7.72;;;14.10;99.90;;;;;;5008458;28;20255;-70
2022/05/05 03:04:27;;;;;;;7.15;6.28;;;14.10;99.90;;;;;;5002394;28;20270;-72
2022/05/05 03:06:54;;;;;;;13.90;6.78;;;14.20;99.90;;;;;;5002289;28;20282;-71
2022/05/05 03:09:22;;;;;;;9.07;7.38;;;14.30;99.90;;;;;;5002481;28;20287;-72
2022/05/05 03:11:50;;;;;;;9.15;8.10;;;14.30;99.90;;;;;;5002321;28;20206;-72
2022/05/05 03:14:18;;;;;;;9.95;7.75;;;14.30;99.90;;;;;;5001955;28;20292;-72
2022/05/05 03:16:47;;;;;;;8.63;7.80;;;14.30;99.90;;;;;;5002401;28;20608;-72
2022/05/05 03:19:15;;;;;;;12.75;8.50;;;14.30;99.90;;;;;;5008183;28;20201;-71
2022/05/05 03:21:43;;;;;;;7.82;7.22;;;14.50;99.90;;;;;;5008168;28;20267;-71
2022/05/05 03:24:11;;;;;;;8.73;7.82;;;14.50;99.90;;;;;;5007852;28;20237;-71
2022/05/05 03:26:39;;;;;;;8.80;8.00;;;14.50;99.90;;;;;;5050891;28;20277;-72
2022/05/05 03:29:06;;;;;;;10.40;8.63;;;14.50;99.90;;;;;;5040209;22;20233;-62
2022/05/05 03:31:34;;;;;;;9.90;8.95;;;14.30;99.90;;;;;;4969275;28;20237;-62
2022/05/05 03:34:04;;;;;;;9.57;8.68;;;14.20;99.90;;;;;;4968586;28;20686;-63
2022/05/05 03:36:32;;;;;;;10.75;9.35;;;14.10;99.90;;;;;;4969184;28;20237;-62
2022/05/05 03:39:00;;;;;;;13.13;9.65;;;14.00;99.90;;;;;;4969151;28;20298;-63
2022/05/05 03:41:28;;;;;;;11.20;9.43;;;13.90;99.90;;;;;;4969524;28;20789;-63
2022/05/05 03:43:56;;;;;;;9.38;7.35;;;13.90;99.90;;;;;;4969251;28;20202;-62
2022/05/05 03:46:24;;;;;;;9.75;8.85;;;14.00;99.90;;;;;;4969312;28;20646;-63
2022/05/05 03:48:53;;;;;;;10.52;9.52;;;14.00;99.90;;;;;;4968852;28;20718;-63
2022/05/05 03:51:22;;;;;;;11.57;10.32;;;13.90;99.90;;;;;;4969729;28;20211;-62
2022/05/05 03:53:50;;;;;;;10.52;9.63;;;13.80;99.90;;;;;;4968645;28;20656;-62
2022/05/05 03:56:18;;;;;;;12.65;10.95;;;13.70;99.90;;;;;;4969417;28;20360;-63
2022/05/05 03:58:46;;;;;;;14.65;11.75;;;13.60;99.90;;;;;;4969275;28;20321;-62
2022/05/05 04:01:14;;;;;;;11.15;10.25;;;13.60;99.90;;;;;;4969069;28;20232;-62
2022/05/05 04:03:44;;;;;;;12.80;11.70;;;13.60;99.90;;;;;;4968537;28;20582;-62
2022/05/05 04:06:13;;;;;;;13.07;11.98;;;13.60;99.90;;;;;;4969003;28;20672;-62
2022/05/05 04:08:42;;;;;;;12.23;11.20;;;13.60;99.90;;;;;;4969215;28;20602;-62
2022/05/05 04:11:10;;;;;;;13.32;12.02;;;13.60;99.90;;;;;;4972116;28;20322;-63
2022/05/05 04:13:39;;;;;;;13.35;12.15;;;13.60;99.90;;;;;;4971560;28;20609;-62
2022/05/05 04:16:09;;;;;;;13.40;12.10;;;13.60;99.90;;;;;;4972548;28;20314;-62
2022/05/05 04:18:37;;;;;;;13.10;11.75;;;13.70;99.90;;;;;;4972200;28;20226;-62
2022/05/05 04:21:05;;;;;;;15.30;13.25;;;13.60;99.90;;;;;;4967482;28;20264;-62
2022/05/05 04:23:33;;;;;;;12.45;11.23;;;13.50;99.90;;;;;;4971481;28;20231;-62
2022/05/05 04:26:12;;;;;;;12.50;11.13;;;13.50;99.90;;;;;;4969644;28;20207;-63
2022/05/05 04:28:42;;;;;;;12.38;11.07;;;13.60;99.90;;;;;;4956296;28;20285;-63
2022/05/05 04:31:12;;;;;;;15.80;11.82;;;13.50;99.90;;;;;;4956464;28;20211;-62
2022/05/05 04:33:40;;;;;;;14.25;12.85;;;13.50;99.90;;;;;;4955350;28;20223;-62
2022/05/05 04:36:08;;;;;;;16.10;14.70;;;13.40;99.90;;;;;;4956582;28;20214;-62
2022/05/05 04:38:36;;;;;;;17.52;13.32;;;13.40;99.90;;;;;;4956271;28;20292;-63
2022/05/05 04:41:05;;;;;;;14.13;12.88;;;13.40;99.90;;;;;;4955842;28;20885;-63
2022/05/05 04:43:34;;;;;;;14.32;13.00;;;13.30;99.90;;;;;;4953994;28;20766;-64
2022/05/05 04:46:02;;;;;;;14.43;13.20;;;13.40;99.90;;;;;;4956649;28;20285;-63
2022/05/05 04:48:30;;;;;;;17.50;15.35;;;13.50;99.90;;;;;;4956696;28;20230;-62
2022/05/05 04:50:58;;;;;;;17.05;15.35;;;13.40;99.90;;;;;;4956776;28;20297;-60
2022/05/05 04:53:26;;;;;;;18.55;16.77;;;13.30;99.90;;;;;;4954681;28;20293;-60
2022/05/05 04:55:54;;;;;;;16.08;14.38;;;13.10;99.90;;;;;;4956145;28;20963;-63
2022/05/05 04:58:23;;;;;;;15.88;14.38;;;13.00;99.90;;;;;;4956220;28;21126;-60
2022/05/05 05:00:54;;;;;;;13.80;12.45;;;13.10;99.90;;;;;;4956487;28;20215;-60
2022/05/05 05:03:35;;;;;;;13.25;12.05;;;13.20;99.90;;;;;;4954706;28;20207;-62
2022/05/05 05:06:04;;;;;;;14.60;13.25;;;13.30;99.90;;;;;;4956090;28;20234;-60
2022/05/05 05:08:32;;;;;;;15.75;14.25;;;13.40;99.90;;;;;;4955283;28;20288;-61
2022/05/05 05:11:00;;;;;;;14.75;13.35;;;13.40;99.90;;;;;;4955985;28;20269;-60
2022/05/05 05:13:28;;;;;;;14.35;13.05;;;13.50;99.90;;;;;;4954260;28;20209;-60
2022/05/05 05:15:57;;;;;;;13.25;11.98;;;13.50;99.90;;;;;;4956841;28;20301;-61
2022/05/05 05:18:25;;;;;;;12.93;11.90;;;13.60;99.90;;;;;;4955960;28;20243;-61
2022/05/05 05:20:53;;;;;;;14.43;13.10;;;13.70;99.90;;;;;;4955937;28;20214;-61
2022/05/05 05:23:21;;;;;;;14.77;13.27;;;13.70;99.90;;;;;;4953854;28;20754;-61
2022/05/05 05:25:49;;;;;;;13.63;12.23;;;13.70;99.90;;;;;;4955983;28;20211;-60
2022/05/05 05:28:17;;;;;;;13.98;12.73;;;13.70;99.90;;;;;;4956028;28;20257;-62
2022/05/05 05:30:45;;;;;;;13.30;12.20;;;13.80;99.90;;;;;;4956181;28;21076;-60
2022/05/05 05:33:14;;;;;;;13.98;12.65;;;13.80;99.90;;;;;;4954539;28;20214;-61
2022/05/05 05:35:44;;;;;;;13.68;12.57;;;13.80;99.90;;;;;;4955948;28;20303;-61
2022/05/05 05:38:12;;;;;;;13.38;12.25;;;13.90;99.90;;;;;;4955600;28;20233;-61
2022/05/05 05:40:40;;;;;;;14.75;12.35;;;13.90;99.90;;;;;;4954236;28;20318;-61
2022/05/05 05:43:08;;;;;;;16.20;12.68;;;13.90;99.90;;;;;;4953789;28;20215;-62
2022/05/05 05:45:36;;;;;;;12.77;11.70;;;13.90;99.90;;;;;;4955161;28;20284;-61
2022/05/05 05:48:06;;;;;;;12.88;11.60;;;13.90;99.90;;;;;;4954384;28;20233;-63
2022/05/05 05:50:36;;;;;;;13.10;11.52;;;14.00;99.90;;;;;;4953937;28;20690;-63
2022/05/05 05:53:04;;;;;;;13.48;11.57;;;14.00;99.90;;;;;;4952967;28;20222;-61
2022/05/05 05:55:32;;;;;;;12.90;11.75;;;14.10;99.90;;;;;;4955726;28;20230;-62
2022/05/05 05:58:00;;;;;;;14.43;12.35;;;14.10;99.90;;;;;;4955238;28;20280;-63
2022/05/05 06:00:30;;;;;;;13.25;11.95;;;14.20;99.90;;;;;;4955513;28;20294;-62
2022/05/05 06:05:45;;;;;;;13.95;12.43;;;14.30;99.90;;;;;;4955700;28;20731;-61
2022/05/05 06:08:16;;;;;;;13.35;11.55;;;14.30;99.90;;;;;;4955002;28;20231;-63
2022/05/05 06:10:44;;;;;;;13.23;11.98;;;14.30;99.90;;;;;;4956221;28;20301;-62
2022/05/05 06:13:12;;;;;;;12.45;11.15;;;14.30;99.90;;;;;;4967877;28;20259;-61
2022/05/05 06:15:40;;;;;;;13.15;11.43;;;14.40;99.90;;;;;;4970283;28;20717;-62
2022/05/05 06:18:08;;;;;;;14.57;11.45;;;14.40;99.90;;;;;;4969831;28;20258;-63
2022/05/05 06:20:36;;;;;;;14.32;10.52;;;14.50;99.90;;;;;;4967071;28;20708;-62
2022/05/05 06:23:05;;;;;;;13.13;11.02;;;14.50;99.90;;;;;;4968133;28;20573;-62
2022/05/05 06:25:33;;;;;;;11.43;10.27;;;14.60;99.90;;;;;;4970216;28;20626;-62
2022/05/05 06:28:01;;;;;;;12.05;10.60;;;14.70;99.90;;;;;;4970066;28;20655;-62
2022/05/05 06:30:29;;;;;;;10.32;9.25;;;14.80;99.90;;;;;;4970112;28;20210;-62
2022/05/05 06:32:57;;;;;;;11.68;10.00;;;14.80;99.90;;;;;;4968822;28;20268;-63
2022/05/05 06:35:25;;;;;;;15.73;11.20;;;14.90;99.90;;;;;;4970006;28;20253;-62
2022/05/05 06:37:53;;;;;;;12.73;11.07;;;15.00;99.90;;;;;;4970235;28;20222;-62
2022/05/05 06:40:22;;;;;;;12.15;11.00;;;15.00;99.90;;;;;;4970180;28;20240;-62
2022/05/05 06:42:50;;;;;;;10.95;9.10;;;15.00;99.90;;;;;;4969544;28;20217;-62
2022/05/05 06:45:18;;;;;;;12.00;10.45;;;15.00;99.90;;;;;;4970146;28;20634;-62
2022/05/05 06:47:46;;;;;;;12.98;9.95;;;15.00;99.90;;;;;;4969775;28;20207;-63
2022/05/05 06:50:15;;;;;;;10.82;9.73;;;15.10;99.90;;;;;;4970034;28;20218;-62
2022/05/05 06:52:43;;;;;;;10.60;9.60;;;15.10;99.90;;;;;;4969662;28;20198;-62
2022/05/05 06:55:12;;;;;;;10.85;9.55;;;15.10;99.90;;;;;;4969950;28;20722;-62
2022/05/05 06:57:41;;;;;;;15.27;10.85;;;15.10;99.90;;;;;;4969973;28;20222;-62
2022/05/05 07:00:09;;;;;;;11.55;10.43;;;15.00;99.90;;;;;;4969643;28;20214;-62
2022/05/05 07:02:37;;;;;;;11.57;10.52;;;15.00;99.90;;;;;;4969531;28;20664;-62
2022/05/05 07:05:24;;;;;;;10.77;9.77;;;14.90;99.90;;;;;;4969661;28;20215;-62
2022/05/05 07:07:52;;;;;;;12.77;10.68;;;14.90;99.90;;;;;;4969836;28;20238;-62
2022/05/05 07:13:09;;;;;;;11.70;10.60;;;15.10;99.90;;;;;;4969203;28;20260;-62
2022/05/05 07:15:37;;;;;;;11.80;10.77;;;15.10;99.90;;;;;;4969780;28;20244;-61
2022/05/05 07:18:06;;;;;;;9.45;8.60;;;15.10;99.90;;;;;;4969415;28;20688;-61
2022/05/05 07:20:34;;;;;;;10.50;9.45;;;15.00;99.90;;;;;;4969295;28;20298;-61
2022/05/05 07:23:02;;;;;;;11.27;9.45;;;15.10;99.90;;;;;;4968903;28;20253;-62
2022/05/05 07:25:30;;;;;;;10.25;9.45;;;15.10;99.90;;;;;;4969434;28;20203;-62
2022/05/05 07:27:58;;;;;;;14.23;11.10;;;15.00;99.90;;;;;;4969322;28;20322;-62
2022/05/05 07:30:27;;;;;;;14.70;12.20;;;15.00;99.90;;;;;;4969476;28;20256;-61
2022/05/05 07:32:55;;;;;;;9.95;9.07;;;14.80;99.90;;;;;;4968815;28;20634;-62
2022/05/05 07:35:23;;;;;;;12.45;11.40;;;14.70;99.90;;;;;;4969014;28;20239;-62
2022/05/05 07:37:51;;;;;;;13.43;12.00;;;14.60;99.90;;;;;;4969429;28;21156;-61
2022/05/05 07:40:19;;;;;;;13.77;11.48;;;14.50;99.90;;;;;;4969511;28;20289;-62
2022/05/05 07:42:47;;;;;;;12.60;11.50;;;14.50;99.90;;;;;;4968787;28;20655;-62
2022/05/05 07:45:14;;;;;;;14.43;11.43;;;14.30;99.90;;;;;;4969308;28;20299;-62
2022/05/05 07:47:44;;;;;;;11.73;10.63;;;14.40;99.90;;;;;;4969023;28;20210;-61
2022/05/05 07:50:12;;;;;;;12.05;10.82;;;14.50;99.90;;;;;;4969161;28;20301;-62
2022/05/05 07:52:39;;;;;;;11.80;10.00;;;14.60;99.90;;;;;;4968336;28;20641;-62
2022/05/05 07:55:08;;;;;;;10.15;9.43;;;14.50;99.90;;;;;;4969413;28;20256;-61
2022/05/05 07:57:43;;;;;;;11.48;10.40;;;14.60;99.90;;;;;;4968980;28;20230;-62
2022/05/05 08:00:13;;;;;;;11.13;10.10;;;14.70;99.90;;;;;;4963085;28;20245;-62
2022/05/05 08:02:40;;;;;;;9.88;8.98;;;14.70;99.90;;;;;;4962600;28;20663;-61
2022/05/05 08:05:12;;;;;;;9.55;8.65;;;14.80;99.90;;;;;;4969025;28;20234;-62
2022/05/05 08:07:46;;;;;;;14.63;9.15;;;14.70;99.90;;;;;;4969014;28;20214;-62
2022/05/05 08:10:14;;;;;;;10.07;9.13;;;14.70;99.90;;;;;;4968944;28;20207;-62
2022/05/05 08:12:42;;;;;;;9.40;8.35;;;14.80;99.90;;;;;;4968148;28;20213;-62
2022/05/05 08:15:10;;;;;;;10.63;8.32;;;14.80;99.90;;;;;;4968917;28;20751;-61
2022/05/05 08:17:39;;;;;;;13.13;9.18;;;14.90;99.90;;;;;;4968559;28;20234;-64
2022/05/05 08:20:10;;;;;;;8.88;8.07;;;14.90;99.90;;;;;;4968744;28;20219;-61
2022/05/05 08:22:39;;;;;;;8.57;7.78;;;14.90;99.90;;;;;;4967934;28;20668;-63
2022/05/05 08:30:38;;;;;;;8.57;7.40;;;15.20;99.90;;;;;;4985573;28;20207;-62
2022/05/05 08:33:06;;;;;;;8.15;7.35;;;15.20;99.90;;;;;;4966402;28;20233;-62
2022/05/05 08:35:35;;;;;;;9.88;8.88;;;15.40;99.90;;;;;;4969135;28;20554;-62
2022/05/05 08:38:03;;;;;;;11.70;7.50;;;15.50;99.90;;;;;;4968649;28;20235;-62
2022/05/05 08:40:34;;;;;;;9.50;7.85;;;15.60;99.90;;;;;;4968772;28;20256;-62
2022/05/05 08:43:02;;;;;;;7.80;7.03;;;15.80;99.90;;;;;;4967790;28;20250;-61
2022/05/05 08:45:33;;;;;;;8.57;7.70;;;15.80;99.90;;;;;;4968912;28;20211;-62
2022/05/05 08:48:06;;;;;;;11.00;7.72;;;15.90;99.90;;;;;;4968495;28;20237;-62
2022/05/05 08:50:36;;;;;;;7.75;7.05;;;15.90;99.90;;;;;;4968645;28;20230;-62
2022/05/05 08:53:05;;;;;;;6.90;6.40;;;16.00;99.90;;;;;;4967887;28;20254;-61
2022/05/05 08:55:34;;;;;;;8.68;7.70;;;16.10;99.90;;;;;;4969567;28;20620;-62
2022/05/05 08:58:02;;;;;;;10.77;9.10;;;16.10;99.90;;;;;;4971218;28;20259;-62
2022/05/05 09:00:30;;;;;;;10.68;8.80;;;16.10;99.90;;;;;;4971595;28;20257;-62
2022/05/05 09:03:00;;;;;;;8.43;7.13;;;16.20;99.90;;;;;;4970963;28;20686;-62
2022/05/05 09:05:56;;;;;;;9.18;8.25;;;16.20;99.90;;;;;;4971684;28;20211;-62
2022/05/05 09:08:29;;;;;;;8.13;7.32;;;16.20;99.90;;;;;;4993875;28;20337;-62
2022/05/05 09:10:58;;;;;;;7.57;6.82;;;16.20;99.90;;;;;;4971691;28;20241;-62
2022/05/05 09:13:27;;;;;;;8.15;7.35;;;16.30;99.90;;;;;;4970795;28;20258;-62
2022/05/05 09:15:56;;;;;;;7.35;6.70;;;16.40;99.90;;;;;;4971253;28;20207;-62
2022/05/05 09:18:28;;;;;;;7.10;6.32;;;16.50;99.90;;;;;;4971912;28;20554;-62
2022/05/05 09:20:59;;;;;;;7.88;7.15;;;16.60;99.90;;;;;;4971456;28;20237;-61
2022/05/05 09:23:28;;;;;;;11.75;7.72;;;16.50;99.90;;;;;;4970658;28;20260;-62
2022/05/05 09:25:56;;;;;;;7.65;6.95;;;16.50;99.90;;;;;;4971447;28;20218;-62
2022/05/05 09:28:27;;;;;;;9.95;7.63;;;16.50;99.90;;;;;;4992932;23;20262;-63
2022/05/05 09:30:55;;;;;;;9.20;7.05;;;16.50;99.90;;;;;;5080805;28;20234;-63
2022/05/05 09:33:38;;;;;;;10.93;8.55;;;16.60;99.90;;;;;;5073579;28;20582;-65
2022/05/05 09:36:09;;;;;;;9.48;7.00;;;16.50;99.90;;;;;;5066851;28;20207;-67
2022/05/05 09:38:53;;;;;;;8.90;7.75;;;16.70;99.90;;;;;;5072749;28;20246;-65
2022/05/05 09:41:22;;;;;;;11.07;7.57;;;16.70;99.90;;;;;;5072923;28;20680;-65
2022/05/05 09:43:51;;;;;;;8.80;7.20;;;16.80;99.90;;;;;;5072071;28;20203;-66
2022/05/05 09:46:33;;;;;;;8.75;7.03;;;17.00;99.90;;;;;;5072723;28;20203;-65
2022/05/05 09:49:10;;;;;;;11.07;6.97;;;17.20;99.90;;;;;;5072653;28;20254;-66
2022/05/05 09:51:42;;;;;;;7.40;6.70;;;17.20;99.90;;;;;;5073212;28;20253;-65
2022/05/05 09:59:47;;;;;;;7.35;6.30;;;17.60;99.90;;;;;;5081100;28;20247;-65
2022/05/05 10:04:00;;;;;;;8.95;6.55;;;17.70;99.90;;;;;;5072179;28;20623;-67
2022/05/05 10:05:10;;;;;;;8.75;6.28;;;17.90;99.90;;;;;;5068759;28;20214;-67
2022/05/05 10:07:44;;;;;;;8.15;6.82;;;17.80;99.90;;;;;;5071373;28;20203;-65
2022/05/05 10:10:15;;;;;;;7.28;6.38;;;17.60;99.90;;;;;;5072724;28;20641;-65
2022/05/05 10:12:45;;;;;;;7.20;6.47;;;17.80;99.90;;;;;;5071529;28;20285;-66
2022/05/05 10:15:13;;;;;;;7.05;6.25;;;17.80;99.90;;;;;;5072294;28;20286;-66
2022/05/05 10:17:42;;;;;;;6.57;5.93;;;17.90;99.90;;;;;;5072246;28;20567;-65
2022/05/05 10:20:12;;;;;;;17.80;6.38;;;17.90;99.90;;;;;;5071998;28;20231;-67
2022/05/05 10:22:51;;;;;;;9.00;6.50;;;18.10;99.90;;;;;;5071296;28;20213;-65
2022/05/05 10:25:26;;;;;;;6.93;6.25;;;17.90;99.90;;;;;;5071758;28;20207;-65
2022/05/05 10:27:55;;;;;;;12.70;6.72;;;17.80;99.90;;;;;;5069284;28;20234;-66
2022/05/05 10:30:34;;;;;;;7.93;7.07;;;17.90;99.90;;;;;;5077042;28;20595;-65
2022/05/05 10:33:02;;;;;;;9.65;6.97;;;18.00;99.90;;;;;;5075381;28;20587;-65
2022/05/05 10:35:38;;;;;;;7.68;6.07;;;17.90;99.90;;;;;;5071758;28;20622;-65
2022/05/05 10:38:40;;;;;;;10.98;7.68;;;17.80;99.90;;;;;;5072123;28;20207;-65
2022/05/05 10:41:40;;;;;;;13.98;6.63;;;17.80;99.90;;;;;;5071591;28;20206;-65
2022/05/05 10:44:25;;;;;;;10.43;6.35;;;17.90;99.90;;;;;;5070851;28;20203;-65
2022/05/05 10:46:58;;;;;;;13.57;7.40;;;18.00;99.90;;;;;;5071649;28;20237;-65
2022/05/05 10:49:46;;;;;;;11.55;7.30;;;18.10;99.90;;;;;;5071380;28;20219;-65
2022/05/05 10:52:32;;;;;;;10.35;6.60;;;17.90;99.90;;;;;;5070660;28;20260;-65
2022/05/05 10:55:25;;;;;;;8.07;5.55;;;18.00;99.90;;;;;;5065933;28;20210;-65
2022/05/05 10:58:13;;;;;;;12.23;7.28;;;17.80;99.90;;;;;;5076011;28;20205;-65
2022/05/05 11:00:44;;;;;;;11.98;7.15;;;17.70;99.90;;;;;;5073499;28;20703;-68
2022/05/05 11:03:18;;;;;;;11.05;6.35;;;17.70;99.90;;;;;;5064443;28;20200;-65
2022/05/05 11:05:46;;;;;;;12.82;7.53;;;17.40;99.90;;;;;;5071067;28;20206;-67
2022/05/05 11:08:31;;;;;;;13.52;7.90;;;17.40;99.90;;;;;;5071001;28;20196;-64
2022/05/05 11:13:47;;;;;;;9.73;6.70;;;17.10;99.90;;;;;;5070483;28;20238;-65
2022/05/05 11:22:17;;;;;;;6.45;5.85;;;17.10;99.90;;;;;;5070696;28;20195;-65
2022/05/05 11:24:47;;;;;;;10.23;6.03;;;17.00;99.90;;;;;;5071120;28;20207;-67
2022/05/05 11:27:19;;;;;;;7.85;6.10;;;17.10;99.90;;;;;;5070208;28;20639;-64
2022/05/05 11:29:49;;;;;;;11.15;6.43;;;17.10;99.90;;;;;;5077550;28;20950;-64
2022/05/05 11:32:18;;;;;;;7.28;5.97;;;17.10;99.90;;;;;;5077167;28;20249;-66
2022/05/05 11:34:48;;;;;;;8.43;6.47;;;17.10;99.90;;;;;;5070817;28;20264;-64
2022/05/05 11:37:17;;;;;;;10.90;6.60;;;17.30;99.90;;;;;;5070829;28;20638;-67
2022/05/05 11:39:47;;;;;;;12.23;6.45;;;17.30;99.90;;;;;;5070840;28;20625;-64
2022/05/05 11:42:16;;;;;;;8.15;6.30;;;17.40;99.90;;;;;;5070036;28;20207;-64
2022/05/05 11:44:45;;;;;;;8.32;5.60;;;17.70;99.90;;;;;;5070744;28;20249;-63
2022/05/05 11:47:16;;;;;;;10.63;6.93;;;17.90;99.90;;;;;;5070834;28;20722;-64
2022/05/05 11:49:46;;;;;;;11.05;5.93;;;18.00;99.90;;;;;;5071182;28;20242;-64
2022/05/05 11:52:17;;;;;;;6.38;5.43;;;18.30;99.90;;;;;;5070107;28;20195;-64
2022/05/05 11:54:48;;;;;;;9.68;5.78;;;18.70;99.20;;;;;;5070831;28;20623;-64
2022/05/05 12:03:00;;;;;;;8.00;6.72;;;19.40;99.20;;;;;;5067468;28;20250;-63
2022/05/05 12:05:30;;;;;;;9.52;6.30;;;19.30;99.30;;;;;;5067612;28;20204;-64
2022/05/05 12:07:58;;;;;;;10.77;6.07;;;19.20;98.50;;;;;;5068099;28;20242;-65
2022/05/05 12:10:34;;;;;;;10.45;5.90;;;19.30;99.20;;;;;;5068186;28;20297;-61
2022/05/05 12:13:02;;;;;;;11.02;6.93;;;19.20;98.60;;;;;;5081958;22;20217;-72
2022/05/05 12:15:33;;;;;;;8.65;6.03;;;19.00;98.90;;;;;;5056218;28;20199;-72
2022/05/05 12:18:01;;;;;;;9.30;5.93;;;18.70;98.90;;;;;;5053496;28;20200;-72
2022/05/05 12:20:31;;;;;;;7.28;4.93;;;18.80;99.40;;;;;;5048208;28;20226;-71
2022/05/05 12:23:01;;;;;;;7.70;6.07;;;18.90;98.50;;;;;;5047190;28;20203;-72
2022/05/05 12:25:29;;;;;;;9.85;5.97;;;19.00;99.20;;;;;;5047534;28;20222;-72
2022/05/05 12:28:05;;;;;;;6.85;5.68;;;19.30;99.70;;;;;;5048815;28;20216;-71
2022/05/05 12:30:36;;;;;;;10.70;6.57;;;19.60;99.30;;;;;;5058984;28;20322;-72
2022/05/05 12:33:05;;;;;;;10.07;6.70;;;19.70;98.70;;;;;;5046862;28;20204;-72
2022/05/05 12:35:37;;;;;;;11.60;6.38;;;19.90;98.10;;;;;;5047354;28;20677;-72
2022/05/05 12:38:06;;;;;;;13.60;6.85;;;20.20;98.80;;;;;;5047180;28;20204;-72
2022/05/05 12:40:35;;;;;;;7.93;6.22;;;20.30;97.90;;;;;;5047433;28;20208;-72
2022/05/05 12:43:05;;;;;;;9.18;6.85;;;20.60;97.70;;;;;;5047324;28;20295;-70
2022/05/05 12:45:36;;;;;;;8.95;5.90;;;20.60;98.10;;;;;;5047209;28;20207;-72
2022/05/05 12:48:06;;;;;;;7.53;6.72;;;20.50;97.50;;;;;;5047378;28;20677;-72
2022/05/05 12:50:36;;;;;;;7.05;6.03;;;20.50;96.50;;;;;;5046889;28;20238;-70
2022/05/05 13:01:35;;;;;;;10.63;6.03;;;20.60;97.80;;;;;;5044334;28;20235;-72
2022/05/05 13:04:06;;;;;;;5.72;5.20;;;20.90;97.00;;;;;;5046018;28;20219;-72
2022/05/05 13:06:35;;;;;;;6.28;5.68;;;21.20;97.40;;;;;;5046783;28;20275;-73
2022/05/05 13:09:05;;;;;;;10.95;6.57;;;21.10;96.90;;;;;;5046799;28;20224;-71
2022/05/05 13:11:33;;;;;;;8.55;6.35;;;21.10;96.30;;;;;;5033125;28;20208;-73
2022/05/05 13:14:02;;;;;;;8.00;5.70;;;21.40;96.10;;;;;;5032483;28;20729;-72
2022/05/05 13:16:31;;;;;;;8.02;6.10;;;22.00;95.40;;;;;;5033637;28;20208;-71
2022/05/05 13:19:02;;;;;;;7.80;5.75;;;22.10;94.20;;;;;;5033322;28;20331;-72
2022/05/05 13:21:32;;;;;;;6.90;5.50;;;22.50;94.70;;;;;;5033638;28;20204;-72
2022/05/05 13:24:00;;;;;;;7.13;5.05;;;23.10;94.00;;;;;;5032574;28;20580;-73
2022/05/05 13:26:29;;;;;;;10.38;4.93;;;23.60;93.80;;;;;;5033389;28;20212;-73
2022/05/05 13:28:57;;;;;;;7.07;5.68;;;24.10;93.00;;;;;;5036415;28;20255;-72
2022/05/05 13:31:25;;;;;;;5.43;4.80;;;24.50;92.50;;;;;;5041257;28;20201;-72
2022/05/05 13:33:53;;;;;;;8.55;5.82;;;24.10;91.20;;;;;;5032781;28;20656;-72
2022/05/05 13:36:22;;;;;;;5.15;4.65;;;23.90;90.40;;;;;;5032852;28;20654;-71
2022/05/05 13:38:50;;;;;;;9.10;4.82;;;24.20;90.60;;;;;;5032801;28;20258;-72
2022/05/05 13:41:34;;;;;;;10.60;5.75;;;24.30;90.20;;;;;;5033194;28;20232;-72
2022/05/05 13:44:03;;;;;;;5.05;4.57;;;24.20;91.00;;;;;;5032171;28;20225;-72